createdAt,value
2017-12-14T00:00:51.686Z,10.15
2017-12-14T00:03:19.621Z,9.63
2017-12-14T00:05:47.422Z,9.90
2017-12-14T00:08:15.218Z,9.25
2017-12-14T00:10:43.087Z,10.52
2017-12-14T00:13:10.887Z,10.38
2017-12-14T00:15:39.451Z,12.93
2017-12-14T00:18:07.317Z,9.93
2017-12-14T00:20:35.125Z,11.70
2017-12-14T00:23:02.921Z,12.37
2017-12-14T00:25:30.786Z,8.32
2017-12-14T00:27:58.586Z,10.13
2017-12-14T00:30:27.146Z,7.28
2017-12-14T00:32:55.008Z,7.53
2017-12-14T00:35:22.801Z,7.78
2017-12-14T00:37:51.376Z,9.18
2017-12-14T00:40:20.010Z,7.80
2017-12-14T00:42:48.586Z,10.27
2017-12-14T00:45:16.388Z,10.10
2017-12-14T00:47:44.290Z,9.07
2017-12-14T00:50:12.106Z,8.52
2017-12-14T00:52:39.915Z,7.65
2017-12-14T00:55:07.814Z,11.82
2017-12-14T00:57:35.640Z,6.97
2017-12-14T01:00:03.462Z,7.15
2017-12-14T01:02:31.326Z,5.07
2017-12-14T01:04:59.123Z,6.90
2017-12-14T01:07:26.933Z,5.43
2017-12-14T01:09:54.786Z,7.05
2017-12-14T01:12:22.582Z,7.53
2017-12-14T01:15:03.465Z,7.90
2017-12-14T01:17:32.136Z,5.50
2017-12-14T01:19:59.878Z,7.03
2017-12-14T01:22:27.635Z,6.53
2017-12-14T01:24:55.442Z,6.62
2017-12-14T01:27:23.950Z,6.55
2017-12-14T01:29:51.695Z,6.90
2017-12-14T01:32:19.494Z,5.97
2017-12-14T01:34:47.238Z,7.97
2017-12-14T01:37:14.977Z,4.62
2017-12-14T01:39:42.779Z,5.37
2017-12-14T01:42:10.532Z,4.65
2017-12-14T01:44:38.282Z,5.37
2017-12-14T01:47:06.104Z,6.30
2017-12-14T01:49:34.657Z,4.65
2017-12-14T01:52:02.414Z,5.80
2017-12-14T01:54:30.238Z,4.07
2017-12-14T01:56:57.986Z,3.55
2017-12-14T01:59:26.503Z,3.85
2017-12-14T02:01:54.312Z,3.53
2017-12-14T02:04:22.823Z,3.78
2017-12-14T02:06:50.565Z,4.80
2017-12-14T02:09:19.136Z,3.65
2017-12-14T02:11:47.642Z,7.20
2017-12-14T02:14:15.400Z,4.00
2017-12-14T02:16:43.204Z,8.90
2017-12-14T02:19:10.958Z,4.20
2017-12-14T02:21:38.710Z,4.20
2017-12-14T02:24:06.513Z,6.40
2017-12-14T02:26:34.255Z,3.40
2017-12-14T02:29:02.003Z,4.00
2017-12-14T02:31:29.800Z,3.45
2017-12-14T02:33:57.553Z,7.12
2017-12-14T02:36:25.306Z,3.10
2017-12-14T02:38:53.106Z,5.28
2017-12-14T02:41:21.614Z,5.65
2017-12-14T02:43:49.358Z,4.72
2017-12-14T02:46:17.175Z,4.32
2017-12-14T02:48:44.927Z,4.32
2017-12-14T02:51:12.674Z,4.32
2017-12-14T02:53:40.483Z,2.80
2017-12-14T02:56:08.994Z,4.25
2017-12-14T02:58:36.740Z,4.93
2017-12-14T03:01:04.548Z,3.72
2017-12-14T03:03:32.315Z,5.53
2017-12-14T03:06:00.073Z,4.07
2017-12-14T03:08:27.887Z,3.90
2017-12-14T03:10:55.631Z,3.58
2017-12-14T03:13:24.137Z,3.05
2017-12-14T03:15:51.940Z,3.10
2017-12-14T03:18:19.692Z,4.07
2017-12-14T03:20:47.436Z,3.58
2017-12-14T03:23:15.232Z,2.62
2017-12-14T03:25:42.979Z,2.90
2017-12-14T03:28:10.731Z,3.17
2017-12-14T03:30:38.533Z,4.35
2017-12-14T03:33:06.279Z,3.17
2017-12-14T03:35:34.028Z,2.92
2017-12-14T03:38:01.834Z,2.70
2017-12-14T03:40:29.581Z,4.12
2017-12-14T03:42:57.339Z,3.03
2017-12-14T03:45:25.144Z,3.58
2017-12-14T03:47:52.906Z,3.50
2017-12-14T03:50:20.683Z,3.05
2017-12-14T03:52:48.515Z,3.53
2017-12-14T03:55:16.264Z,3.87
2017-12-14T03:57:44.782Z,3.87
2017-12-14T04:00:12.611Z,4.25
2017-12-14T04:02:41.123Z,4.40
2017-12-14T04:05:08.862Z,4.70
2017-12-14T04:07:36.686Z,3.65
2017-12-14T04:10:04.447Z,2.62
2017-12-14T04:12:32.214Z,4.18
2017-12-14T04:15:00.035Z,3.47
2017-12-14T04:17:27.821Z,4.10
2017-12-14T04:19:55.638Z,3.92
2017-12-14T04:22:23.463Z,7.50
2017-12-14T04:24:51.251Z,3.58
2017-12-14T04:27:19.790Z,6.55
2017-12-14T04:29:47.594Z,4.43
2017-12-14T04:32:16.144Z,4.95
2017-12-14T04:34:43.930Z,4.57
2017-12-14T04:37:12.527Z,4.40
2017-12-14T04:39:40.313Z,4.07
2017-12-14T04:42:08.861Z,7.37
2017-12-14T04:44:37.470Z,3.90
2017-12-14T04:47:05.286Z,3.33
2017-12-14T04:49:33.052Z,2.53
2017-12-14T04:52:00.886Z,3.95
2017-12-14T04:54:28.667Z,4.37
2017-12-14T04:56:56.414Z,6.35
2017-12-14T04:59:24.245Z,5.85
2017-12-14T05:01:52.002Z,5.15
2017-12-14T05:04:19.779Z,5.95
2017-12-14T05:06:47.632Z,7.05
2017-12-14T05:09:15.424Z,4.72
2017-12-14T05:11:43.193Z,4.28
2017-12-14T05:14:11.027Z,4.30
2017-12-14T05:16:38.816Z,16.10
2017-12-14T05:19:06.592Z,5.47
2017-12-14T05:21:34.432Z,6.68
2017-12-14T05:24:02.201Z,7.62
2017-12-14T05:26:29.982Z,7.60
2017-12-14T05:28:57.824Z,5.40
2017-12-14T05:31:26.362Z,3.97
2017-12-14T05:33:54.138Z,4.10
2017-12-14T05:36:21.978Z,8.10
2017-12-14T05:38:50.508Z,7.03
2017-12-14T05:41:18.283Z,5.28
2017-12-14T05:43:46.143Z,4.30
2017-12-14T05:46:13.914Z,5.78
2017-12-14T05:48:41.687Z,2.97
2017-12-14T05:51:09.606Z,3.92
2017-12-14T05:53:37.367Z,4.37
2017-12-14T05:56:05.150Z,3.53
2017-12-14T05:58:33.082Z,3.95
2017-12-14T06:01:00.847Z,3.72
2017-12-14T06:03:28.652Z,3.17
2017-12-14T06:05:56.487Z,3.50
2017-12-14T06:08:24.254Z,3.25
2017-12-14T06:10:52.005Z,3.25
2017-12-14T06:13:19.834Z,4.85
2017-12-14T06:15:48.363Z,4.00
2017-12-14T06:18:16.135Z,5.35
2017-12-14T06:20:44.718Z,5.18
2017-12-14T06:23:12.474Z,4.80
2017-12-14T06:25:40.246Z,6.15
2017-12-14T06:28:08.084Z,8.88
2017-12-14T06:30:35.856Z,7.32
2017-12-14T06:33:04.441Z,5.90
2017-12-14T06:35:32.265Z,7.85
2017-12-14T06:38:00.026Z,7.95
2017-12-14T06:40:27.802Z,6.87
2017-12-14T06:42:55.641Z,7.00
2017-12-14T06:45:23.395Z,6.30
2017-12-14T06:47:51.975Z,5.50
2017-12-14T06:50:20.567Z,5.80
2017-12-14T06:52:48.340Z,6.25
2017-12-14T06:55:16.155Z,6.78
2017-12-14T06:57:43.988Z,10.43
2017-12-14T07:00:11.753Z,7.18
2017-12-14T07:02:39.589Z,10.05
2017-12-14T07:05:07.411Z,8.95
2017-12-14T07:07:35.192Z,7.53
2017-12-14T07:10:03.726Z,11.38
2017-12-14T07:12:31.559Z,13.27
2017-12-14T07:14:59.344Z,8.50
2017-12-14T07:17:27.124Z,7.43
2017-12-14T07:19:54.995Z,6.80
2017-12-14T07:22:22.759Z,8.65
2017-12-14T07:24:50.579Z,9.55
2017-12-14T07:27:18.418Z,8.25
2017-12-14T07:29:46.958Z,6.57
2017-12-14T07:32:14.719Z,7.05
2017-12-14T07:34:42.743Z,8.32
2017-12-14T07:37:10.521Z,9.38
2017-12-14T07:39:38.294Z,6.50
2017-12-14T07:42:06.118Z,8.40
2017-12-14T07:44:33.891Z,8.52
2017-12-14T07:47:13.417Z,6.95
2017-12-14T07:49:41.201Z,9.25
2017-12-14T07:52:08.988Z,8.40
2017-12-14T07:54:36.819Z,10.30
2017-12-14T07:57:04.603Z,12.13
2017-12-14T07:59:32.389Z,13.25
2017-12-14T08:02:00.217Z,11.63
2017-12-14T08:04:27.983Z,11.90
2017-12-14T08:06:55.775Z,15.88
2017-12-14T08:09:23.612Z,11.60
2017-12-14T08:11:51.449Z,9.73
2017-12-14T08:14:19.235Z,8.60
2017-12-14T08:16:47.086Z,18.10
2017-12-14T08:19:14.885Z,11.18
2017-12-14T08:21:42.679Z,11.65
2017-12-14T08:24:11.298Z,11.02
2017-12-14T08:26:39.075Z,10.95
2017-12-14T08:29:06.859Z,17.05
2017-12-14T08:31:34.686Z,8.93
2017-12-14T08:34:02.463Z,15.20
2017-12-14T08:36:30.237Z,14.10
2017-12-14T08:38:58.052Z,13.82
2017-12-14T08:41:25.817Z,11.07
2017-12-14T08:43:53.596Z,12.82
2017-12-14T08:46:21.452Z,10.77
2017-12-14T08:48:49.231Z,11.12
2017-12-14T08:51:17.019Z,15.13
2017-12-14T08:53:44.878Z,16.48
2017-12-14T08:56:12.672Z,14.07
2017-12-14T08:58:40.492Z,11.77
2017-12-14T09:01:08.339Z,10.68
2017-12-14T09:03:36.110Z,11.15
2017-12-14T09:06:03.907Z,9.10
2017-12-14T09:08:31.735Z,10.35
2017-12-14T09:10:59.492Z,7.57
2017-12-14T09:13:27.280Z,8.57
2017-12-14T09:15:55.452Z,7.97
2017-12-14T09:18:23.233Z,16.52
2017-12-14T09:20:51.014Z,14.40
2017-12-14T09:23:19.618Z,11.80
2017-12-14T09:25:47.404Z,14.10
2017-12-14T09:28:15.183Z,10.77
2017-12-14T09:30:43.007Z,10.70
2017-12-14T09:33:10.798Z,10.13
2017-12-14T09:35:38.618Z,12.15
2017-12-14T09:38:06.451Z,13.45
2017-12-14T09:40:34.214Z,16.05
2017-12-14T09:43:02.079Z,13.50
2017-12-14T09:45:29.909Z,12.02
2017-12-14T09:47:57.686Z,11.10
2017-12-14T09:50:25.462Z,14.00
2017-12-14T09:52:53.290Z,12.13
2017-12-14T09:55:21.071Z,11.25
2017-12-14T09:57:48.856Z,13.10
2017-12-14T10:00:17.480Z,8.57
2017-12-14T10:02:45.264Z,12.32
2017-12-14T10:05:13.039Z,10.57
2017-12-14T10:07:40.868Z,8.70
2017-12-14T10:10:08.656Z,15.73
2017-12-14T10:12:36.427Z,16.35
2017-12-14T10:15:04.268Z,11.98
2017-12-14T10:17:32.038Z,9.10
2017-12-14T10:19:59.799Z,8.90
2017-12-14T10:22:27.631Z,9.60
2017-12-14T10:24:55.415Z,9.93
2017-12-14T10:27:23.191Z,9.93
2017-12-14T10:29:51.028Z,7.50
2017-12-14T10:32:18.799Z,8.20
2017-12-14T10:34:46.573Z,8.65
2017-12-14T10:37:14.410Z,9.55
2017-12-14T10:39:42.193Z,11.45
2017-12-14T10:42:09.978Z,12.80
2017-12-14T10:44:37.815Z,10.38
2017-12-14T10:47:05.592Z,6.53
2017-12-14T10:49:33.367Z,11.88
2017-12-14T10:52:01.198Z,5.75
2017-12-14T10:54:28.980Z,5.00
2017-12-14T10:56:56.750Z,4.47
2017-12-14T10:59:24.729Z,3.25
2017-12-14T11:01:52.548Z,5.07
2017-12-14T11:04:20.326Z,5.70
2017-12-14T11:06:48.156Z,2.55
2017-12-14T11:09:15.942Z,5.72
2017-12-14T11:11:43.699Z,5.20
2017-12-14T11:14:11.535Z,3.50
2017-12-14T11:16:39.316Z,3.15
2017-12-14T11:19:07.102Z,3.40
2017-12-14T11:21:34.943Z,3.00
2017-12-14T11:24:02.723Z,4.05
2017-12-14T11:26:30.504Z,4.45
2017-12-14T11:28:58.326Z,4.25
2017-12-14T11:31:26.093Z,3.83
2017-12-14T11:33:53.878Z,5.65
2017-12-14T11:36:21.714Z,4.55
2017-12-14T11:38:49.733Z,6.62
2017-12-14T11:41:18.031Z,5.30
2017-12-14T11:43:46.310Z,9.18
2017-12-14T11:46:14.442Z,5.15
2017-12-14T11:48:42.694Z,5.20
2017-12-14T11:51:13.419Z,5.65
2017-12-14T11:53:44.693Z,5.85
2017-12-14T11:56:15.411Z,4.45
2017-12-14T11:58:46.111Z,3.60
2017-12-14T12:01:17.234Z,4.30
2017-12-14T12:03:49.599Z,2.30
2017-12-14T12:06:18.564Z,2.42
2017-12-14T12:08:49.017Z,3.17
2017-12-14T12:11:19.904Z,1.48
2017-12-14T12:13:51.826Z,2.25
2017-12-14T12:16:23.220Z,2.47
2017-12-14T12:18:55.170Z,1.85
2017-12-14T12:21:26.063Z,3.25
2017-12-14T12:23:57.196Z,2.25
2017-12-14T12:26:28.488Z,2.95
2017-12-14T12:28:59.117Z,3.20
2017-12-14T12:31:27.773Z,1.65
2017-12-14T12:33:58.356Z,5.22
2017-12-14T12:36:29.978Z,2.55
2017-12-14T12:38:58.790Z,2.12
2017-12-14T12:41:29.950Z,5.30
2017-12-14T12:44:01.264Z,3.47
2017-12-14T12:46:31.745Z,3.10
2017-12-14T12:49:02.308Z,2.85
2017-12-14T12:51:32.830Z,4.93
2017-12-14T12:54:03.243Z,2.55
2017-12-14T12:56:33.322Z,2.37
2017-12-14T12:59:04.039Z,5.12
2017-12-14T13:01:32.808Z,2.35
2017-12-14T13:04:03.535Z,6.15
2017-12-14T13:06:35.661Z,3.08
2017-12-14T13:09:06.417Z,6.18
2017-12-14T13:11:38.655Z,3.60
2017-12-14T13:14:10.308Z,5.40
2017-12-14T13:16:42.426Z,3.80
2017-12-14T13:19:14.016Z,6.87
2017-12-14T13:21:45.736Z,6.68
2017-12-14T13:24:17.456Z,13.80
2017-12-14T13:26:49.199Z,3.85
2017-12-14T13:29:17.972Z,3.75
2017-12-14T13:31:49.815Z,5.78
2017-12-14T13:34:20.981Z,5.72
2017-12-14T13:36:52.882Z,3.40
2017-12-14T13:39:21.796Z,3.67
2017-12-14T13:41:52.582Z,3.62
2017-12-14T13:44:21.415Z,3.72
2017-12-14T13:46:50.260Z,6.12
2017-12-14T13:49:18.085Z,2.20
2017-12-14T13:51:45.922Z,7.62
2017-12-14T13:54:13.799Z,3.40
2017-12-14T13:56:41.616Z,4.30
2017-12-14T13:59:09.436Z,5.30
2017-12-14T14:01:37.316Z,3.25
2017-12-14T14:04:05.150Z,2.70
2017-12-14T14:06:32.954Z,3.40
2017-12-14T14:09:00.819Z,3.72
2017-12-14T14:11:28.641Z,3.33
2017-12-14T14:13:56.443Z,7.37
2017-12-14T14:16:25.924Z,6.40
2017-12-14T14:18:53.710Z,4.12
2017-12-14T14:21:21.544Z,7.55
2017-12-14T14:23:49.413Z,8.63
2017-12-14T14:26:17.225Z,3.70
2017-12-14T14:28:45.123Z,4.00
2017-12-14T14:31:13.011Z,3.62
2017-12-14T14:33:40.859Z,5.47
2017-12-14T14:36:08.678Z,5.95
2017-12-14T14:38:36.532Z,9.27
2017-12-14T14:41:04.334Z,6.15
2017-12-14T14:43:32.152Z,5.10
2017-12-14T14:45:59.996Z,9.88
2017-12-14T14:48:27.810Z,5.78
2017-12-14T14:50:57.555Z,5.40
2017-12-14T14:53:25.502Z,7.22
2017-12-14T14:55:53.295Z,8.90
2017-12-14T14:58:21.080Z,5.82
2017-12-14T15:00:48.916Z,6.28
2017-12-14T15:03:16.705Z,11.05
2017-12-14T15:05:44.497Z,5.80
2017-12-14T15:08:13.110Z,8.60
2017-12-14T15:10:40.934Z,6.62
2017-12-14T15:13:09.494Z,7.50
2017-12-14T15:15:37.372Z,7.15
2017-12-14T15:18:05.933Z,7.03
2017-12-14T15:20:33.733Z,7.97
2017-12-14T15:23:02.345Z,14.70
2017-12-14T15:25:30.126Z,7.22
2017-12-14T15:27:57.905Z,8.23
2017-12-14T15:30:25.744Z,8.27
2017-12-14T15:32:53.532Z,8.07
2017-12-14T15:35:21.328Z,6.53
2017-12-14T15:37:49.933Z,7.97
2017-12-14T15:40:17.782Z,8.77
2017-12-14T15:42:45.594Z,8.30
2017-12-14T15:45:14.197Z,7.32
2017-12-14T15:47:42.016Z,7.78
2017-12-14T15:50:09.806Z,8.20
2017-12-14T15:52:37.646Z,7.55
2017-12-14T15:55:05.436Z,8.65
2017-12-14T15:57:33.233Z,8.52
2017-12-14T16:00:01.845Z,13.10
2017-12-14T16:02:29.630Z,9.23
2017-12-14T16:04:57.421Z,13.52
2017-12-14T16:07:26.031Z,9.50
2017-12-14T16:09:53.824Z,13.40
2017-12-14T16:12:21.609Z,11.88
2017-12-14T16:14:49.453Z,13.32
2017-12-14T16:17:17.252Z,17.98
2017-12-14T16:19:45.811Z,14.32
2017-12-14T16:22:13.695Z,18.30
2017-12-14T16:24:41.485Z,13.82
2017-12-14T16:27:09.277Z,14.05
2017-12-14T16:29:37.126Z,10.18
2017-12-14T16:32:04.922Z,11.43
2017-12-14T16:34:32.716Z,13.40
2017-12-14T16:37:01.326Z,19.20
2017-12-14T16:39:29.121Z,10.93
2017-12-14T16:41:56.911Z,16.17
2017-12-14T16:44:24.757Z,9.77
2017-12-14T16:46:52.557Z,14.38
2017-12-14T16:49:21.117Z,16.25
2017-12-14T16:51:48.966Z,10.73
2017-12-14T16:54:16.758Z,11.57
2017-12-14T16:56:45.320Z,15.93
2017-12-14T16:59:13.180Z,17.90
2017-12-14T17:01:40.999Z,18.92
2017-12-14T17:04:08.830Z,14.87
2017-12-14T17:06:37.453Z,17.33
2017-12-14T17:09:05.866Z,20.42
2017-12-14T17:11:33.680Z,21.20
2017-12-14T17:14:01.597Z,22.00
2017-12-14T17:16:29.435Z,13.90
2017-12-14T17:18:57.242Z,15.38
2017-12-14T17:21:25.888Z,13.93
2017-12-14T17:23:53.709Z,13.00
2017-12-14T17:26:21.513Z,9.32
2017-12-14T17:28:49.361Z,13.27
2017-12-14T17:31:18.031Z,16.00
2017-12-14T17:33:45.854Z,11.00
2017-12-14T17:36:15.135Z,8.80
2017-12-14T17:38:44.670Z,15.93
2017-12-14T17:41:13.627Z,11.60
2017-12-14T17:43:42.691Z,9.05
2017-12-14T17:46:10.484Z,12.73
2017-12-14T17:48:38.274Z,7.93
2017-12-14T17:51:06.889Z,9.23
2017-12-14T17:53:34.679Z,10.65
2017-12-14T17:56:02.536Z,8.98
2017-12-14T17:58:30.384Z,11.00
2017-12-14T18:00:58.190Z,5.60
2017-12-14T18:03:26.748Z,10.57
2017-12-14T18:05:55.447Z,6.05
2017-12-14T18:08:23.245Z,8.13
2017-12-14T18:10:51.036Z,8.02
2017-12-14T18:13:18.894Z,13.57
2017-12-14T18:15:46.737Z,9.63
2017-12-14T18:18:14.546Z,12.68
2017-12-14T18:20:42.411Z,12.23
2017-12-14T18:23:10.202Z,10.15
2017-12-14T18:25:38.757Z,9.45
2017-12-14T18:28:06.626Z,10.38
2017-12-14T18:30:34.438Z,12.93
2017-12-14T18:33:02.267Z,12.90
2017-12-14T18:35:30.881Z,8.85
2017-12-14T18:37:58.696Z,15.85
2017-12-14T18:40:26.506Z,12.25
2017-12-14T18:42:54.367Z,14.50
2017-12-14T18:45:22.212Z,11.20
2017-12-14T18:47:50.790Z,7.25
2017-12-14T18:50:19.416Z,8.68
2017-12-14T18:52:47.229Z,13.27
2017-12-14T18:55:15.038Z,9.38
2017-12-14T18:57:42.942Z,10.68
2017-12-14T19:00:10.786Z,11.38
2017-12-14T19:02:38.610Z,8.55
2017-12-14T19:05:06.461Z,14.15
2017-12-14T19:07:35.085Z,15.30
2017-12-14T19:10:02.900Z,20.42
2017-12-14T19:12:31.566Z,11.38
2017-12-14T19:14:59.431Z,13.15
2017-12-14T19:17:27.236Z,9.77
2017-12-14T19:19:55.125Z,18.48
2017-12-14T19:22:23.725Z,12.88
2017-12-14T19:24:51.541Z,10.80
2017-12-14T19:27:19.789Z,10.65
2017-12-14T19:29:48.417Z,13.32
2017-12-14T19:32:16.305Z,11.48
2017-12-14T19:34:44.174Z,8.07
2017-12-14T19:37:11.974Z,11.27
2017-12-14T19:39:40.571Z,9.05
2017-12-14T19:42:08.587Z,8.68
2017-12-14T19:44:36.393Z,14.95
2017-12-14T19:47:04.215Z,12.45
2017-12-14T19:49:32.068Z,7.72
2017-12-14T19:51:59.897Z,11.25
2017-12-14T19:54:27.739Z,7.65
2017-12-14T19:56:55.616Z,9.05
2017-12-14T19:59:23.450Z,10.48
2017-12-14T20:01:52.018Z,10.90
2017-12-14T20:04:19.908Z,9.95
2017-12-14T20:06:47.721Z,15.68
2017-12-14T20:09:17.149Z,12.40
2017-12-14T20:11:45.096Z,10.73
2017-12-14T20:14:12.916Z,13.38
2017-12-14T20:16:40.737Z,13.07
2017-12-14T20:19:08.618Z,18.60
2017-12-14T20:21:37.190Z,18.08
2017-12-14T20:24:05.030Z,22.70
2017-12-14T20:26:32.920Z,31.52
2017-12-14T20:29:01.570Z,47.90
2017-12-14T20:31:29.401Z,39.85
2017-12-14T20:33:57.264Z,18.92
2017-12-14T20:36:25.128Z,16.15
2017-12-14T20:38:53.090Z,9.75
2017-12-14T20:41:20.941Z,11.23
2017-12-14T20:43:49.588Z,9.70
2017-12-14T20:46:18.169Z,7.87
2017-12-14T20:48:46.843Z,6.93
2017-12-14T20:51:14.751Z,10.35
2017-12-14T20:53:43.008Z,10.02
2017-12-14T20:56:11.644Z,9.43
2017-12-14T20:58:39.530Z,9.02
2017-12-14T21:01:07.371Z,14.38
2017-12-14T21:03:35.299Z,8.48
2017-12-14T21:06:03.870Z,6.80
2017-12-14T21:08:32.492Z,9.63
2017-12-14T21:11:00.347Z,11.73
2017-12-14T21:13:28.133Z,8.35
2017-12-14T21:15:55.973Z,8.65
2017-12-14T21:18:24.065Z,6.32
2017-12-14T21:20:52.673Z,7.87
2017-12-14T21:23:20.474Z,7.18
2017-12-14T21:25:48.373Z,5.93
2017-12-14T21:28:16.254Z,8.95
2017-12-14T21:30:44.129Z,8.43
2017-12-14T21:33:12.000Z,9.57
2017-12-14T21:35:40.625Z,6.30
2017-12-14T21:38:08.465Z,7.00
2017-12-14T21:40:37.151Z,14.10
2017-12-14T21:43:05.716Z,9.63
2017-12-14T21:45:34.270Z,4.45
2017-12-14T21:48:02.125Z,9.77
2017-12-14T21:50:29.969Z,5.00
2017-12-14T21:52:57.769Z,6.18
2017-12-14T21:55:25.637Z,7.68
2017-12-14T21:57:53.469Z,4.82
2017-12-14T22:00:22.062Z,5.57
2017-12-14T22:02:50.241Z,5.68
2017-12-14T22:05:18.080Z,7.10
2017-12-14T22:07:45.916Z,4.82
2017-12-14T22:10:13.766Z,7.30
2017-12-14T22:12:42.430Z,6.32
2017-12-14T22:15:10.234Z,6.35
2017-12-14T22:17:38.074Z,4.75
2017-12-14T22:20:06.881Z,7.93
2017-12-14T22:22:34.855Z,6.57
2017-12-14T22:25:02.702Z,4.00
2017-12-14T22:27:30.517Z,4.87
2017-12-14T22:29:58.305Z,5.78
2017-12-14T22:32:26.924Z,6.55
2017-12-14T22:34:54.727Z,7.45
2017-12-14T22:37:22.516Z,3.85
2017-12-14T22:39:51.125Z,5.07
2017-12-14T22:42:18.949Z,6.28
2017-12-14T22:44:46.748Z,7.20
2017-12-14T22:47:14.613Z,5.22
2017-12-14T22:49:42.498Z,8.40
2017-12-14T22:52:10.381Z,7.57
2017-12-14T22:54:38.245Z,9.18
2017-12-14T22:57:06.081Z,7.53
2017-12-14T22:59:33.895Z,8.30
2017-12-14T23:02:01.742Z,8.07
2017-12-14T23:04:29.544Z,4.25
2017-12-14T23:06:57.478Z,11.75
2017-12-14T23:09:25.352Z,6.47
2017-12-14T23:11:53.145Z,6.05
2017-12-14T23:14:20.950Z,5.78
2017-12-14T23:16:48.973Z,6.45
2017-12-14T23:19:16.823Z,4.47
2017-12-14T23:21:45.393Z,4.90
2017-12-14T23:24:13.254Z,3.40
2017-12-14T23:26:41.083Z,10.23
2017-12-14T23:29:08.881Z,7.62
2017-12-14T23:31:36.755Z,4.15
2017-12-14T23:34:05.330Z,7.72
2017-12-14T23:36:33.886Z,5.10
2017-12-14T23:39:01.748Z,7.10
2017-12-14T23:41:29.570Z,9.48
2017-12-14T23:43:57.356Z,5.47
2017-12-14T23:46:25.200Z,7.15
2017-12-14T23:48:52.985Z,4.85
2017-12-14T23:51:20.789Z,4.25
2017-12-14T23:53:49.413Z,3.67
2017-12-14T23:56:17.198Z,7.40
2017-12-14T23:58:45.025Z,4.22
